createdAt,value
2023-05-10T00:01:49.961Z,102153.63
2023-05-10T00:04:18.186Z,102153.50
2023-05-10T00:06:46.510Z,102151.39
2023-05-10T00:09:15.392Z,102155.13
2023-05-10T00:11:43.567Z,102157.11
2023-05-10T00:14:12.725Z,102154.52
2023-05-10T00:16:40.985Z,102156.36
2023-05-10T00:19:09.293Z,102152.59
2023-05-10T00:21:37.502Z,102154.70
2023-05-10T00:24:05.968Z,102154.07
2023-05-10T00:26:34.264Z,102154.06
2023-05-10T00:29:02.451Z,102152.02
2023-05-10T00:31:30.583Z,102155.70
2023-05-10T00:33:59.298Z,102153.90
2023-05-10T00:36:27.566Z,102150.46
2023-05-10T00:38:55.674Z,102148.86
2023-05-10T00:41:23.934Z,102152.15
2023-05-10T00:43:52.303Z,102139.56
2023-05-10T00:46:20.663Z,102151.05
2023-05-10T00:48:49.126Z,102152.56
2023-05-10T00:51:17.510Z,102159.45
2023-05-10T00:53:50.636Z,102160.25
2023-05-10T00:56:19.038Z,102159.48
2023-05-10T00:58:47.165Z,102156.72
2023-05-10T01:01:15.459Z,102154.98
2023-05-10T01:03:43.954Z,102155.25
2023-05-10T01:06:12.404Z,102153.52
2023-05-10T01:08:40.965Z,102155.03
2023-05-10T01:11:09.327Z,102156.39
2023-05-10T01:13:40.684Z,102150.33
2023-05-10T01:16:09.276Z,102149.36
2023-05-10T01:18:41.481Z,102145.99
2023-05-10T01:21:31.204Z,102151.12
2023-05-10T01:24:09.384Z,102143.48
2023-05-10T01:26:52.544Z,102148.81
2023-05-10T01:29:42.245Z,102143.91
2023-05-10T01:32:13.469Z,102144.08
2023-05-10T01:34:54.357Z,102139.20
2023-05-10T01:37:48.662Z,102138.94
2023-05-10T01:40:20.100Z,102139.30
2023-05-10T01:42:53.827Z,102143.30
2023-05-10T01:45:48.004Z,102146.20
2023-05-10T01:48:17.327Z,102147.14
2023-05-10T01:50:47.565Z,102147.69
2023-05-10T01:53:19.935Z,102144.95
2023-05-10T01:55:53.552Z,102140.70
2023-05-10T01:58:23.784Z,102143.52
2023-05-10T02:00:54.308Z,102146.66
2023-05-10T02:03:25.218Z,102142.43
2023-05-10T02:05:55.664Z,102138.34
2023-05-10T02:08:25.535Z,102139.92
2023-05-10T02:10:57.654Z,102135.80
2023-05-10T02:13:27.366Z,102132.82
2023-05-10T02:15:56.808Z,102133.81
2023-05-10T02:18:28.149Z,102132.02
2023-05-10T02:20:59.051Z,102137.53
2023-05-10T02:23:27.689Z,102138.48
2023-05-10T02:25:58.043Z,102135.08
2023-05-10T02:28:27.684Z,102128.50
2023-05-10T02:30:57.836Z,102132.05
2023-05-10T02:33:27.960Z,102124.53
2023-05-10T02:35:57.732Z,102128.81
2023-05-10T02:38:27.962Z,102128.58
2023-05-10T02:40:57.762Z,102126.40
2023-05-10T02:43:26.949Z,102123.39
2023-05-10T02:45:55.512Z,102106.41
2023-05-10T02:48:23.684Z,102121.61
2023-05-10T02:50:53.580Z,102121.88
2023-05-10T02:53:32.881Z,102122.25
2023-05-10T02:56:05.453Z,102115.36
2023-05-10T02:58:34.352Z,102128.02
2023-05-10T03:01:02.600Z,102127.05
2023-05-10T03:03:30.725Z,102126.85
2023-05-10T03:05:59.627Z,102124.66
2023-05-10T03:08:30.497Z,102125.88
2023-05-10T03:11:11.448Z,102123.91
2023-05-10T03:13:55.414Z,102113.72
2023-05-10T03:16:36.892Z,102123.48
2023-05-10T03:19:12.349Z,102117.95
2023-05-10T03:21:45.546Z,102124.43
2023-05-10T03:24:16.701Z,102117.23
2023-05-10T03:26:46.781Z,102115.73
2023-05-10T03:29:18.749Z,102120.10
2023-05-10T03:31:47.270Z,102091.89
2023-05-10T03:34:15.917Z,102103.71
2023-05-10T03:36:44.370Z,102117.32
2023-05-10T03:39:12.593Z,102120.02
2023-05-10T03:41:41.203Z,102119.98
2023-05-10T03:44:10.438Z,102120.03
2023-05-10T03:46:38.673Z,102120.50
2023-05-10T03:49:07.037Z,102125.42
2023-05-10T03:51:35.248Z,102107.61
2023-05-10T03:54:03.362Z,102105.06
2023-05-10T03:56:31.595Z,102120.11
2023-05-10T03:58:59.971Z,102122.48
2023-05-10T04:01:28.097Z,102119.30
2023-05-10T04:03:56.529Z,102114.30
2023-05-10T04:06:24.849Z,102121.42
2023-05-10T04:08:53.119Z,102117.41
2023-05-10T04:11:23.060Z,102119.65
2023-05-10T04:13:51.240Z,102120.27
2023-05-10T04:16:19.422Z,102122.04
2023-05-10T04:18:47.679Z,102121.09
2023-05-10T04:21:15.958Z,102117.30
2023-05-10T04:23:44.131Z,102113.94
2023-05-10T04:26:12.463Z,102117.48
2023-05-10T04:28:40.613Z,102112.27
2023-05-10T04:31:11.068Z,102114.67
2023-05-10T04:33:39.225Z,102119.13
2023-05-10T04:36:08.141Z,102113.52
2023-05-10T04:38:36.924Z,102115.41
2023-05-10T04:41:06.980Z,102110.31
2023-05-10T04:43:35.851Z,102113.27
2023-05-10T04:46:04.359Z,102113.27
2023-05-10T04:48:32.735Z,102105.76
2023-05-10T04:51:00.997Z,102113.02
2023-05-10T04:53:29.165Z,102113.54
2023-05-10T04:55:57.388Z,102113.71
2023-05-10T04:58:25.589Z,102113.29
2023-05-10T05:00:53.758Z,102111.37
2023-05-10T05:03:21.996Z,102115.93
2023-05-10T05:05:50.180Z,102116.48
2023-05-10T05:08:18.312Z,102109.97
2023-05-10T05:10:46.425Z,102109.49
2023-05-10T05:13:14.675Z,102113.88
2023-05-10T05:15:42.835Z,102112.55
2023-05-10T05:18:11.060Z,102109.66
2023-05-10T05:20:39.467Z,102116.95
2023-05-10T05:23:07.621Z,102114.66
2023-05-10T05:25:35.779Z,102112.73
2023-05-10T05:28:04.070Z,102109.51
2023-05-10T05:30:32.813Z,102108.98
2023-05-10T05:33:01.179Z,102110.15
2023-05-10T05:35:29.448Z,102105.11
2023-05-10T05:37:57.538Z,102101.07
2023-05-10T05:40:25.779Z,102103.16
2023-05-10T05:42:54.018Z,102100.54
2023-05-10T05:45:22.338Z,102102.18
2023-05-10T05:47:50.521Z,102099.42
2023-05-10T05:50:19.759Z,102101.77
2023-05-10T05:52:47.990Z,102097.89
2023-05-10T05:55:16.491Z,102097.59
2023-05-10T05:57:44.897Z,102098.95
2023-05-10T06:00:13.671Z,102095.42
2023-05-10T06:02:41.867Z,102092.74
2023-05-10T06:05:10.204Z,102089.14
2023-05-10T06:07:38.391Z,102092.17
2023-05-10T06:10:07.414Z,102094.34
2023-05-10T06:12:36.063Z,102097.57
2023-05-10T06:15:05.005Z,102090.77
2023-05-10T06:17:33.200Z,102090.19
2023-05-10T06:20:01.503Z,102089.58
2023-05-10T06:22:29.754Z,102088.08
2023-05-10T06:24:57.882Z,102090.08
2023-05-10T06:27:26.006Z,102090.47
2023-05-10T06:30:02.178Z,102091.31
2023-05-10T06:32:37.753Z,102087.07
2023-05-10T06:35:06.451Z,102083.80
2023-05-10T06:37:35.562Z,102084.89
2023-05-10T06:40:04.945Z,102083.41
2023-05-10T06:42:33.410Z,102080.45
2023-05-10T06:45:01.661Z,102084.37
2023-05-10T06:47:29.810Z,102079.77
2023-05-10T06:49:58.446Z,102079.17
2023-05-10T06:52:26.800Z,102079.69
2023-05-10T06:54:55.074Z,102064.67
2023-05-10T06:57:31.323Z,102077.67
2023-05-10T07:00:00.993Z,102073.98
2023-05-10T07:02:29.468Z,102080.87
2023-05-10T07:04:59.502Z,102079.43
2023-05-10T07:07:30.014Z,102079.48
2023-05-10T07:09:58.834Z,102082.97
2023-05-10T07:12:27.323Z,102081.27
2023-05-10T07:14:55.973Z,102080.48
2023-05-10T07:17:24.146Z,102079.00
2023-05-10T07:19:52.322Z,102080.11
2023-05-10T07:22:20.547Z,102074.77
2023-05-10T07:24:48.831Z,102075.90
2023-05-10T07:27:17.109Z,102074.94
2023-05-10T07:29:45.373Z,102077.39
2023-05-10T07:32:13.505Z,102083.70
2023-05-10T07:34:41.763Z,102078.69
2023-05-10T07:37:09.866Z,102093.96
2023-05-10T07:39:38.523Z,102108.02
2023-05-10T07:42:06.844Z,102120.09
2023-05-10T07:44:35.157Z,102121.65
2023-05-10T07:47:03.732Z,102120.06
2023-05-10T07:49:32.055Z,102124.38
2023-05-10T07:52:00.324Z,102121.13
2023-05-10T07:54:28.412Z,102113.23
2023-05-10T07:56:56.712Z,102103.44
2023-05-10T07:59:25.035Z,102091.13
2023-05-10T08:01:53.298Z,102081.52
2023-05-10T08:04:21.538Z,102077.65
2023-05-10T08:06:49.760Z,102070.14
2023-05-10T08:09:18.878Z,102081.72
2023-05-10T08:11:47.040Z,102074.42
2023-05-10T08:14:15.163Z,102074.04
2023-05-10T08:16:43.494Z,102072.95
2023-05-10T08:19:11.722Z,102067.17
2023-05-10T08:21:41.584Z,102065.93
2023-05-10T08:24:09.729Z,102065.05
2023-05-10T08:26:38.078Z,102060.84
2023-05-10T08:29:06.464Z,102058.16
2023-05-10T08:31:34.840Z,102047.64
2023-05-10T08:34:03.164Z,102063.17
2023-05-10T08:36:31.242Z,102064.90
2023-05-10T08:38:59.705Z,102063.74
2023-05-10T08:41:28.395Z,102060.38
2023-05-10T08:43:56.776Z,102061.14
2023-05-10T08:46:24.993Z,102056.67
2023-05-10T08:48:55.388Z,102059.40
2023-05-10T08:51:27.882Z,102066.07
2023-05-10T08:53:56.399Z,102056.42
2023-05-10T08:56:25.190Z,102054.86
2023-05-10T08:58:53.893Z,102054.35
2023-05-10T09:01:22.948Z,102054.98
2023-05-10T09:03:52.001Z,102048.90
2023-05-10T09:06:20.719Z,102037.36
2023-05-10T09:08:49.242Z,102050.15
2023-05-10T09:11:18.479Z,102043.55
2023-05-10T09:13:49.253Z,102049.77
2023-05-10T09:16:21.957Z,102051.27
2023-05-10T09:18:50.948Z,102042.02
2023-05-10T09:21:21.033Z,102038.98
2023-05-10T09:23:51.330Z,102041.91
2023-05-10T09:26:23.914Z,102040.93
2023-05-10T09:29:00.120Z,102034.73
2023-05-10T09:31:57.670Z,102038.82
2023-05-10T09:34:33.444Z,102031.67
2023-05-10T09:37:03.739Z,102030.83
2023-05-10T09:39:33.627Z,102031.48
2023-05-10T09:42:04.999Z,102026.07
2023-05-10T09:44:34.594Z,102024.48
2023-05-10T09:47:03.949Z,102023.84
2023-05-10T09:49:32.202Z,102024.06
2023-05-10T09:52:05.706Z,102023.23
2023-05-10T09:54:34.575Z,102022.06
2023-05-10T09:57:03.285Z,102020.35
2023-05-10T09:59:31.507Z,102011.38
2023-05-10T10:02:01.781Z,102014.19
2023-05-10T10:04:30.234Z,102011.13
2023-05-10T10:07:05.143Z,102006.50
2023-05-10T10:09:34.869Z,102001.98
2023-05-10T10:12:03.885Z,101996.04
2023-05-10T10:14:32.010Z,101991.91
2023-05-10T10:19:38.113Z,101989.54
2023-05-10T10:22:07.033Z,101983.33
2023-05-10T10:24:35.457Z,101983.73
2023-05-10T10:27:37.182Z,101977.88
2023-05-10T10:30:18.160Z,101971.27
2023-05-10T10:32:49.467Z,101966.22
2023-05-10T10:35:17.959Z,101960.70
2023-05-10T10:37:48.036Z,101959.13
2023-05-10T10:40:34.688Z,101959.48
2023-05-10T10:43:22.075Z,101954.63
2023-05-10T10:46:15.380Z,101957.30
2023-05-10T10:48:52.725Z,101952.55
2023-05-10T10:51:21.095Z,101944.80
2023-05-10T10:53:49.476Z,101954.19
2023-05-10T10:56:24.736Z,101946.24
2023-05-10T10:58:54.340Z,101950.04
2023-05-10T11:01:22.511Z,101944.15
2023-05-10T11:04:05.617Z,101947.52
2023-05-10T11:06:36.032Z,101940.75
2023-05-10T11:09:12.751Z,101945.23
2023-05-10T11:11:56.490Z,101933.84
2023-05-10T11:14:24.827Z,101935.04
2023-05-10T11:16:53.066Z,101932.73
2023-05-10T11:19:21.332Z,101930.30
2023-05-10T11:21:50.900Z,101936.66
2023-05-10T11:24:21.773Z,101934.40
2023-05-10T11:26:53.187Z,101929.38
2023-05-10T11:29:21.532Z,101924.41
2023-05-10T11:31:50.710Z,101923.98
2023-05-10T11:34:34.773Z,101919.30
2023-05-10T11:37:03.124Z,101919.95
2023-05-10T11:39:32.974Z,101923.98
2023-05-10T11:42:01.415Z,101910.02
2023-05-10T11:44:35.942Z,101923.92
2023-05-10T11:47:04.397Z,101924.74
2023-05-10T11:49:32.675Z,101925.48
2023-05-10T11:52:08.368Z,101917.34
2023-05-10T11:54:37.009Z,101921.22
2023-05-10T11:57:05.586Z,101908.73
2023-05-10T11:59:33.755Z,101917.13
2023-05-10T12:02:02.183Z,101905.60
2023-05-10T12:04:31.327Z,101907.48
2023-05-10T12:06:59.920Z,101915.87
2023-05-10T12:09:42.784Z,101909.48
2023-05-10T12:12:18.009Z,101907.81
2023-05-10T12:14:51.446Z,101901.21
2023-05-10T12:17:19.405Z,101907.69
2023-05-10T12:19:48.300Z,101903.85
2023-05-10T12:22:16.371Z,101904.95
2023-05-10T12:24:46.534Z,101899.05
2023-05-10T12:27:34.032Z,101897.46
2023-05-10T12:30:03.667Z,101894.52
2023-05-10T12:32:42.662Z,101899.30
2023-05-10T12:35:10.990Z,101902.78
2023-05-10T12:37:41.886Z,101893.79
2023-05-10T12:40:14.518Z,101894.67
2023-05-10T12:42:42.952Z,101892.62
2023-05-10T12:45:11.518Z,101895.70
2023-05-10T12:47:42.205Z,101899.18
2023-05-10T12:50:12.357Z,101892.34
2023-05-10T12:52:40.970Z,101892.70
2023-05-10T12:55:09.476Z,101884.16
2023-05-10T12:57:37.686Z,101894.05
2023-05-10T13:00:06.672Z,101898.17
2023-05-10T13:02:34.876Z,101899.50
2023-05-10T13:05:03.072Z,101892.34
2023-05-10T13:07:31.255Z,101893.05
2023-05-10T13:09:59.367Z,101889.52
2023-05-10T13:12:27.430Z,101887.29
2023-05-10T13:14:55.442Z,101890.73
2023-05-10T13:17:23.831Z,101882.63
2023-05-10T13:19:51.893Z,101884.84
2023-05-10T13:22:28.790Z,101879.89
2023-05-10T13:25:05.192Z,101877.73
2023-05-10T13:27:33.317Z,101885.88
2023-05-10T13:30:01.616Z,101882.27
2023-05-10T13:32:30.230Z,101885.48
2023-05-10T13:34:58.391Z,101879.86
2023-05-10T13:37:26.600Z,101870.40
2023-05-10T13:39:54.667Z,101866.88
2023-05-10T13:42:25.912Z,101869.85
2023-05-10T13:44:54.248Z,101863.29
2023-05-10T13:47:23.719Z,101871.21
2023-05-10T13:49:51.813Z,101861.87
2023-05-10T13:52:20.123Z,101868.60
2023-05-10T13:54:48.269Z,101865.15
2023-05-10T13:57:17.842Z,101866.42
2023-05-10T13:59:45.979Z,101869.32
2023-05-10T14:02:14.312Z,101855.94
2023-05-10T14:04:42.483Z,101870.59
2023-05-10T14:07:11.239Z,101866.24
2023-05-10T14:09:39.327Z,101861.35
2023-05-10T14:12:07.471Z,101858.08
2023-05-10T14:14:35.724Z,101856.62
2023-05-10T14:17:03.821Z,101852.58
2023-05-10T14:19:33.618Z,101847.27
2023-05-10T14:22:01.793Z,101857.23
2023-05-10T14:24:29.863Z,101850.55
2023-05-10T14:26:58.207Z,101848.60
2023-05-10T14:29:26.553Z,101842.17
2023-05-10T14:31:54.693Z,101838.41
2023-05-10T14:34:22.930Z,101836.72
2023-05-10T14:36:51.484Z,101840.79
2023-05-10T14:39:19.577Z,101836.80
2023-05-10T14:41:48.332Z,101839.89
2023-05-10T14:44:16.558Z,101837.36
2023-05-10T14:46:44.738Z,101837.45
2023-05-10T14:49:13.175Z,101839.27
2023-05-10T14:51:41.455Z,101827.34
2023-05-10T14:54:09.582Z,101836.05
2023-05-10T14:56:38.929Z,101835.01
2023-05-10T14:59:07.073Z,101826.21
2023-05-10T15:01:38.665Z,101830.61
2023-05-10T15:04:07.279Z,101829.44
2023-05-10T15:06:36.367Z,101827.88
2023-05-10T15:09:04.847Z,101824.97
2023-05-10T15:11:33.216Z,101827.16
2023-05-10T15:14:02.823Z,101819.95
2023-05-10T15:16:32.282Z,101820.25
2023-05-10T15:19:02.413Z,101822.73
2023-05-10T15:21:36.319Z,101819.73
2023-05-10T15:24:04.609Z,101822.90
2023-05-10T15:26:32.772Z,101821.74
2023-05-10T15:29:00.994Z,101821.04
2023-05-10T15:31:29.235Z,101824.79
2023-05-10T15:34:00.464Z,101821.88
2023-05-10T15:36:28.531Z,101823.58
2023-05-10T15:38:56.945Z,101820.32
2023-05-10T15:41:25.776Z,101814.20
2023-05-10T15:43:54.765Z,101817.33
2023-05-10T15:46:23.023Z,101808.70
2023-05-10T15:48:51.123Z,101817.70
2023-05-10T15:51:19.823Z,101815.48
2023-05-10T15:54:05.257Z,101815.70
2023-05-10T15:56:36.281Z,101815.17
2023-05-10T15:59:06.155Z,101813.73
2023-05-10T16:01:34.666Z,101813.79
2023-05-10T16:04:02.990Z,101819.86
2023-05-10T16:06:31.511Z,101818.73
2023-05-10T16:08:59.816Z,101821.84
2023-05-10T16:11:27.959Z,101825.08
2023-05-10T16:13:56.171Z,101824.95
2023-05-10T16:16:24.709Z,101825.56
2023-05-10T16:18:53.357Z,101823.61
2023-05-10T16:21:21.597Z,101824.98
2023-05-10T16:23:49.778Z,101824.92
2023-05-10T16:26:17.855Z,101827.27
2023-05-10T16:28:47.006Z,101829.05
2023-05-10T16:31:15.455Z,101829.04
2023-05-10T16:33:43.803Z,101827.81
2023-05-10T16:36:12.045Z,101832.88
2023-05-10T16:38:40.349Z,101833.73
2023-05-10T16:41:08.746Z,101836.30
2023-05-10T16:43:36.898Z,101839.84
2023-05-10T16:46:10.467Z,101842.95
2023-05-10T16:48:39.259Z,101839.55
2023-05-10T16:51:08.006Z,101843.51
2023-05-10T16:53:36.491Z,101843.34
2023-05-10T16:56:04.731Z,101842.27
2023-05-10T16:58:32.954Z,101846.39
2023-05-10T17:01:01.169Z,101846.98
2023-05-10T17:03:29.455Z,101849.02
2023-05-10T17:05:59.087Z,101852.66
2023-05-10T17:08:27.371Z,101851.90
2023-05-10T17:10:56.431Z,101850.57
2023-05-10T17:13:24.611Z,101852.21
2023-05-10T17:15:53.359Z,101855.13
2023-05-10T17:18:21.700Z,101858.27
2023-05-10T17:20:50.773Z,101863.61
2023-05-10T17:23:18.933Z,101869.70
2023-05-10T17:25:47.250Z,101867.30
2023-05-10T17:28:15.474Z,101871.17
2023-05-10T17:30:44.627Z,101871.09
2023-05-10T17:33:12.898Z,101869.39
2023-05-10T17:35:41.063Z,101877.90
2023-05-10T17:38:09.250Z,101874.30
2023-05-10T17:40:40.664Z,101884.13
2023-05-10T17:43:08.821Z,101886.40
2023-05-10T17:45:36.961Z,101892.23
2023-05-10T17:48:05.158Z,101896.13
2023-05-10T17:50:33.880Z,101893.09
2023-05-10T17:53:03.013Z,101898.09
2023-05-10T17:55:31.385Z,101899.13
2023-05-10T17:58:00.136Z,101900.77
2023-05-10T18:00:28.482Z,101900.73
2023-05-10T18:02:56.635Z,101905.11
2023-05-10T18:05:24.832Z,101904.45
2023-05-10T18:07:53.050Z,101896.05
2023-05-10T18:10:21.292Z,101906.20
2023-05-10T18:12:50.894Z,101906.00
2023-05-10T18:15:19.192Z,101912.25
2023-05-10T18:17:49.761Z,101913.11
2023-05-10T18:20:17.995Z,101915.94
2023-05-10T18:22:46.154Z,101917.91
2023-05-10T18:25:14.375Z,101915.20
2023-05-10T18:27:42.920Z,101925.34
2023-05-10T18:30:12.651Z,101927.94
2023-05-10T18:32:41.037Z,101931.93
2023-05-10T18:35:09.697Z,101936.59
2023-05-10T18:37:38.966Z,101939.52
2023-05-10T18:40:14.412Z,101945.73
2023-05-10T18:42:42.613Z,101937.46
2023-05-10T18:45:11.743Z,101951.52
2023-05-10T18:47:39.876Z,101956.65
2023-05-10T18:50:08.514Z,101958.64
2023-05-10T18:52:39.611Z,101957.62
2023-05-10T18:55:08.718Z,101959.44
2023-05-10T18:57:41.459Z,101959.78
2023-05-10T19:00:12.437Z,101960.35
2023-05-10T19:02:41.310Z,101964.89
2023-05-10T19:05:09.923Z,101965.30
2023-05-10T19:07:38.357Z,101966.15
2023-05-10T19:10:07.083Z,101956.13
2023-05-10T19:12:35.516Z,101969.39
2023-05-10T19:15:03.923Z,101971.04
2023-05-10T19:17:32.330Z,101972.66
2023-05-10T19:20:02.716Z,101974.76
2023-05-10T19:22:47.107Z,101973.95
2023-05-10T19:25:21.038Z,101964.53
2023-05-10T19:27:49.265Z,101976.56
2023-05-10T19:30:17.646Z,101976.23
2023-05-10T19:32:45.775Z,101976.20
2023-05-10T19:35:14.054Z,101974.17
2023-05-10T19:37:47.342Z,101977.31
2023-05-10T19:40:16.052Z,101980.49
2023-05-10T19:42:44.263Z,101983.81
2023-05-10T19:45:12.584Z,101988.80
2023-05-10T19:47:42.085Z,101991.05
2023-05-10T19:50:12.488Z,101996.14
2023-05-10T19:52:40.927Z,101985.61
2023-05-10T19:55:09.433Z,101995.94
2023-05-10T19:57:37.933Z,102001.38
2023-05-10T20:00:06.853Z,101999.78
2023-05-10T20:02:39.285Z,102001.64
2023-05-10T20:05:07.976Z,102005.41
2023-05-10T20:07:37.024Z,102007.27
2023-05-10T20:10:05.520Z,102008.34
2023-05-10T20:12:33.778Z,102013.38
2023-05-10T20:15:01.942Z,102011.30
2023-05-10T20:17:30.503Z,102012.50
2023-05-10T20:19:58.735Z,102012.79
2023-05-10T20:22:27.026Z,102013.41
2023-05-10T20:24:56.327Z,102017.64
2023-05-10T20:27:24.806Z,102015.49
2023-05-10T20:29:53.462Z,102016.06
2023-05-10T20:32:21.599Z,102019.65
2023-05-10T20:34:50.113Z,102015.98
2023-05-10T20:37:18.324Z,102021.06
2023-05-10T20:39:48.435Z,102018.14
2023-05-10T20:42:18.071Z,102018.31
2023-05-10T20:44:46.152Z,102019.20
2023-05-10T20:47:18.206Z,102020.70
2023-05-10T20:49:46.404Z,102020.38
2023-05-10T20:52:14.519Z,102021.96
2023-05-10T20:54:42.614Z,102024.32
2023-05-10T20:57:12.918Z,102024.77
2023-05-10T20:59:41.104Z,102015.91
2023-05-10T21:02:09.359Z,102026.65
2023-05-10T21:04:37.529Z,102024.69
2023-05-10T21:07:05.761Z,102024.14
2023-05-10T21:09:35.286Z,102028.86
2023-05-10T21:12:03.525Z,102032.76
2023-05-10T21:14:31.737Z,102032.55
2023-05-10T21:16:59.945Z,102034.97
2023-05-10T21:19:28.092Z,102031.52
2023-05-10T21:21:57.413Z,102034.72
2023-05-10T21:24:25.931Z,102029.56
2023-05-10T21:26:54.084Z,102035.08
2023-05-10T21:29:22.379Z,102039.13
2023-05-10T21:31:50.677Z,102041.17
2023-05-10T21:34:19.014Z,102045.70
2023-05-10T21:36:47.130Z,102046.49
2023-05-10T21:39:15.296Z,102045.87
2023-05-10T21:41:43.402Z,102037.38
2023-05-10T21:44:11.725Z,102048.09
2023-05-10T21:46:39.776Z,102046.11
2023-05-10T21:49:08.297Z,102046.27
2023-05-10T21:51:36.439Z,102044.16
2023-05-10T21:54:04.789Z,102047.02
2023-05-10T21:56:32.961Z,102047.05
2023-05-10T21:59:01.248Z,102045.45
2023-05-10T22:01:29.482Z,102043.38
2023-05-10T22:03:57.652Z,102045.21
2023-05-10T22:06:25.837Z,102049.06
2023-05-10T22:08:53.896Z,102048.92
2023-05-10T22:11:22.101Z,102043.74
2023-05-10T22:13:50.262Z,102049.23
2023-05-10T22:16:18.373Z,102049.39
2023-05-10T22:18:46.745Z,102052.87
2023-05-10T22:21:14.990Z,102051.55
2023-05-10T22:23:43.509Z,102055.02
2023-05-10T22:26:12.064Z,102057.77
2023-05-10T22:28:40.179Z,102061.96
2023-05-10T22:31:11.951Z,102064.14
2023-05-10T22:33:40.434Z,102066.16
2023-05-10T22:36:08.826Z,102066.27
2023-05-10T22:38:37.677Z,102069.73
2023-05-10T22:41:05.823Z,102069.55
2023-05-10T22:43:34.289Z,102072.20
2023-05-10T22:46:02.387Z,102072.28
2023-05-10T22:48:34.382Z,102074.02
2023-05-10T22:51:02.629Z,102077.92
2023-05-10T22:53:30.974Z,102068.75
2023-05-10T22:55:59.250Z,102073.48
2023-05-10T22:58:27.562Z,102071.05
2023-05-10T23:00:55.770Z,102074.95
2023-05-10T23:03:24.885Z,102076.17
2023-05-10T23:05:53.055Z,102072.25
2023-05-10T23:08:21.372Z,102075.08
2023-05-10T23:10:49.556Z,102074.51
2023-05-10T23:13:18.909Z,102076.77
2023-05-10T23:15:47.333Z,102079.58
2023-05-10T23:18:15.701Z,102078.14
2023-05-10T23:20:44.508Z,102081.48
2023-05-10T23:23:12.676Z,102084.61
2023-05-10T23:25:40.831Z,102083.19
2023-05-10T23:28:08.960Z,102086.86
2023-05-10T23:30:37.064Z,102087.38
2023-05-10T23:33:05.197Z,102083.69
2023-05-10T23:35:33.297Z,102084.94
2023-05-10T23:38:02.177Z,102090.34
2023-05-10T23:40:30.341Z,102084.38
2023-05-10T23:42:58.419Z,102088.80
2023-05-10T23:45:26.583Z,102092.88
2023-05-10T23:47:54.749Z,102090.55
2023-05-10T23:50:23.104Z,102092.88
2023-05-10T23:52:51.324Z,102092.97
2023-05-10T23:55:19.468Z,102091.30
2023-05-10T23:57:47.540Z,102096.91
